Time;durP1;ratioP1;P1;durP2;ratioP2;P2;SDS_P1;SDS_P2;PMS_P1;PMS_P2;Temp;Humidity;BMP_temperature;BMP_pressure;BME280_temperature;BME280_humidity;BME280_pressure;Samples;Min_cycle;Max_cycle;Signal;HPM_P1;HPM_P2
2022/05/06 00:01:55;;;;;;;65.38;27.23;;;8.60;99.90;;;;;;5073823;28;20097;-83
2022/05/06 00:04:21;;;;;;;57.28;29.88;;;8.50;99.90;;;;;;5073783;28;20098;-83
2022/05/06 00:06:47;;;;;;;56.00;30.63;;;8.40;99.90;;;;;;5073589;28;20052;-83
2022/05/06 00:09:13;;;;;;;66.78;34.53;;;8.50;99.90;;;;;;5073748;28;20491;-83
2022/05/06 00:11:38;;;;;;;41.60;23.52;;;9.00;99.90;;;;;;5067400;28;20094;-83
2022/05/06 00:14:04;;;;;;;62.33;33.03;;;8.30;99.90;;;;;;5072520;28;20385;-80
2022/05/06 00:16:30;;;;;;;64.30;34.08;;;8.20;99.90;;;;;;5056932;28;20093;-80
2022/05/06 00:18:56;;;;;;;73.35;36.97;;;8.20;99.90;;;;;;5040214;28;20050;-80
2022/05/06 00:21:22;;;;;;;58.72;34.40;;;8.20;99.90;;;;;;5056757;28;20479;-80
2022/05/06 00:23:48;;;;;;;57.13;32.10;;;8.20;99.90;;;;;;5073157;28;20048;-80
2022/05/06 00:26:14;;;;;;;59.83;32.17;;;8.20;99.90;;;;;;5073188;28;20040;-80
2022/05/06 00:28:39;;;;;;;68.03;33.63;;;8.30;99.90;;;;;;5056920;28;20094;-82
2022/05/06 00:31:06;;;;;;;61.05;35.65;;;9.00;99.90;;;;;;5056562;28;20033;-82
2022/05/06 00:33:32;;;;;;;62.15;33.80;;;8.00;99.90;;;;;;5073118;28;20047;-82
2022/05/06 00:35:59;;;;;;;58.85;34.47;;;8.20;99.90;;;;;;5059011;28;20043;-82
2022/05/06 00:38:26;;;;;;;54.22;32.47;;;8.10;99.90;;;;;;5072801;28;20513;-82
2022/05/06 00:40:53;;;;;;;54.38;31.15;;;8.10;99.90;;;;;;5056340;28;20502;-81
2022/05/06 00:43:19;;;;;;;64.75;35.50;;;8.00;99.90;;;;;;5072870;28;20086;-82
2022/05/06 00:45:53;;;;;;;59.05;31.83;;;7.90;99.90;;;;;;5055667;28;20044;-79
2022/05/06 00:48:23;;;;;;;59.90;32.65;;;7.90;99.90;;;;;;5057049;28;20137;-79
2022/05/06 00:50:49;;;;;;;49.47;30.40;;;7.90;99.90;;;;;;5072882;28;20032;-79
2022/05/06 00:53:15;;;;;;;63.28;34.45;;;7.90;99.90;;;;;;5072641;28;20120;-79
2022/05/06 00:55:42;;;;;;;57.03;32.75;;;7.80;99.90;;;;;;5072742;28;20047;-79
2022/05/06 00:58:08;;;;;;;57.63;31.88;;;7.80;99.90;;;;;;5072551;28;20040;-79
2022/05/06 01:00:34;;;;;;;63.22;35.22;;;7.80;99.90;;;;;;5072656;28;20052;-79
2022/05/06 01:03:00;;;;;;;63.30;33.53;;;7.80;99.90;;;;;;5039656;28;20043;-79
2022/05/06 01:05:27;;;;;;;33.33;22.35;;;7.80;99.90;;;;;;5019808;28;20040;-80
2022/05/06 01:07:53;;;;;;;45.35;27.27;;;7.70;99.90;;;;;;5072448;28;20040;-80
2022/05/06 01:10:20;;;;;;;54.10;31.42;;;7.70;99.90;;;;;;5055850;28;20041;-80
2022/05/06 01:12:47;;;;;;;54.38;30.10;;;7.70;99.90;;;;;;5035904;28;20566;-80
2022/05/06 01:15:17;;;;;;;56.67;33.50;;;7.60;99.90;;;;;;5066579;28;20036;-80
2022/05/06 01:17:43;;;;;;;62.58;36.17;;;7.60;99.90;;;;;;5039504;28;20139;-79
2022/05/06 01:20:09;;;;;;;55.13;33.83;;;;;;;;;;5072246;28;20141;-79
2022/05/06 01:22:35;;;;;;;61.88;37.40;;;7.70;99.90;;;;;;5067230;28;20051;-79
2022/05/06 01:25:01;;;;;;;80.00;40.92;;;7.70;99.90;;;;;;5013664;28;20036;-79
2022/05/06 01:27:32;;;;;;;81.63;40.08;;;7.70;99.90;;;;;;5072116;28;20165;-79
2022/05/06 01:29:59;;;;;;;68.53;38.45;;;8.50;99.90;;;;;;5072173;28;20040;-79
2022/05/06 01:32:27;;;;;;;61.85;37.25;;;7.80;99.90;;;;;;5071996;28;20121;-79
2022/05/06 01:34:56;;;;;;;67.10;37.30;;;7.80;99.90;;;;;;5072079;28;20032;-79
2022/05/06 01:37:23;;;;;;;64.00;35.85;;;7.80;99.90;;;;;;5071819;28;20502;-79
2022/05/06 01:39:53;;;;;;;58.92;32.50;;;8.20;99.90;;;;;;5072196;28;20040;-80
2022/05/06 01:42:21;;;;;;;66.53;37.30;;;7.80;99.90;;;;;;5071928;28;20047;-80
2022/05/06 01:44:50;;;;;;;83.07;42.40;;;8.00;99.90;;;;;;5071995;28;20425;-80
2022/05/06 01:47:23;;;;;;;80.28;42.20;;;8.10;99.90;;;;;;5071692;28;20449;-79
2022/05/06 01:49:58;;;;;;;78.13;39.90;;;8.30;99.90;;;;;;5055253;28;20120;-80
2022/05/06 01:52:24;;;;;;;87.38;41.55;;;8.40;99.90;;;;;;5071908;28;20046;-80
2022/05/06 01:54:50;;;;;;;104.20;45.55;;;8.50;99.90;;;;;;5055188;28;20043;-80
2022/05/06 01:57:16;;;;;;;95.40;45.00;;;8.60;99.90;;;;;;5055200;28;20116;-80
2022/05/06 01:59:42;;;;;;;92.70;44.80;;;8.70;99.90;;;;;;5071699;28;20467;-79
2022/05/06 02:02:08;;;;;;;91.95;43.50;;;8.80;99.90;;;;;;5071607;28;20119;-80
2022/05/06 02:07:17;;;;;;;92.03;42.15;;;9.10;99.90;;;;;;5057281;28;20080;-79
2022/05/06 02:09:43;;;;;;;88.30;41.72;;;9.20;99.90;;;;;;5055068;28;20097;-83
2022/05/06 02:12:09;;;;;;;81.95;40.13;;;9.20;99.90;;;;;;5062512;28;20095;-83
2022/05/06 02:14:35;;;;;;;110.15;41.90;;;9.40;99.90;;;;;;5060665;28;20036;-83
2022/05/06 02:17:01;;;;;;;126.45;44.95;;;9.60;99.90;;;;;;5057586;28;20055;-83
2022/05/06 02:19:27;;;;;;;106.57;44.33;;;9.60;99.90;;;;;;5064345;28;20064;-83
2022/05/06 02:21:52;;;;;;;87.38;39.38;;;10.90;99.90;;;;;;5064617;28;20059;-83
2022/05/06 02:24:18;;;;;;;100.43;43.45;;;9.70;99.90;;;;;;5020814;28;20044;-83
2022/05/06 02:26:44;;;;;;;124.78;44.75;;;9.80;99.90;;;;;;5054769;28;20045;-83
2022/05/06 02:29:10;;;;;;;122.80;45.88;;;9.90;99.90;;;;;;5044892;28;20037;-82
2022/05/06 02:34:20;;;;;;;113.70;44.17;;;10.00;99.90;;;;;;5057150;28;20055;-82
2022/05/06 02:36:46;;;;;;;164.55;48.38;;;10.00;99.90;;;;;;5045340;28;20040;-82
2022/05/06 02:39:12;;;;;;;129.68;45.55;;;10.10;99.90;;;;;;5052068;28;20094;-82
2022/05/06 02:41:38;;;;;;;118.85;47.28;;;10.10;99.90;;;;;;5071399;28;20048;-83
2022/05/06 02:44:04;;;;;;;210.60;50.05;;;10.10;99.90;;;;;;5071456;28;20131;-82
2022/05/06 02:46:33;;;;;;;140.95;48.03;;;10.10;99.90;;;;;;5054595;28;20447;-82
2022/05/06 02:49:00;;;;;;;102.60;44.38;;;10.20;99.90;;;;;;5034897;28;20037;-82
2022/05/06 02:51:30;;;;;;;107.95;43.97;;;10.20;99.90;;;;;;5052939;28;20036;-82
2022/05/06 02:53:59;;;;;;;155.48;48.85;;;10.20;99.90;;;;;;5071327;28;20044;-83
2022/05/06 02:56:25;;;;;;;195.35;48.58;;;10.30;99.90;;;;;;5054574;28;20486;-82
2022/05/06 02:58:51;;;;;;;209.70;46.58;;;10.30;99.90;;;;;;5071127;28;20512;-82
2022/05/06 03:01:16;;;;;;;156.48;45.88;;;10.30;99.90;;;;;;5071155;28;20044;-82
2022/05/06 03:03:42;;;;;;;135.48;42.60;;;10.30;99.90;;;;;;5047787;28;20040;-82
2022/05/06 03:06:09;;;;;;;323.85;45.85;;;10.30;99.90;;;;;;5047257;28;20098;-82
2022/05/06 03:08:35;;;;;;;250.93;45.42;;;10.30;99.90;;;;;;5042975;28;20044;-82
2022/05/06 03:11:02;;;;;;;203.07;44.28;;;10.30;99.90;;;;;;5074664;28;20065;-83
2022/05/06 03:13:27;;;;;;;191.35;45.58;;;10.30;99.90;;;;;;5060368;28;20041;-82
2022/05/06 03:15:53;;;;;;;185.27;46.13;;;10.30;99.90;;;;;;5058117;28;20417;-84
2022/05/06 03:18:19;;;;;;;185.32;41.15;;;10.20;99.90;;;;;;5058079;28;20075;-84
2022/05/06 03:20:45;;;;;;;228.05;43.53;;;10.20;99.90;;;;;;5057576;28;20052;-84
2022/05/06 03:23:15;;;;;;;124.80;40.33;;;10.50;99.90;;;;;;5041193;28;20123;-84
2022/05/06 03:25:40;;;;;;;175.88;40.17;;;10.80;99.90;;;;;;5044041;28;20041;-84
2022/05/06 03:28:09;;;;;;;380.25;43.67;;;10.30;99.90;;;;;;5057589;28;20407;-84
2022/05/06 03:30:44;;;;;;;302.27;43.17;;;10.30;99.90;;;;;;5037721;28;20056;-84
2022/05/06 03:33:12;;;;;;;476.30;48.90;;;10.30;99.90;;;;;;5065271;28;20043;-81
2022/05/06 03:35:39;;;;;;;256.90;42.35;;;11.20;99.90;;;;;;5074405;28;20048;-81
2022/05/06 03:38:06;;;;;;;189.45;38.47;;;10.20;99.90;;;;;;5057519;28;20037;-81
2022/05/06 03:40:33;;;;;;;207.48;40.08;;;10.20;99.90;;;;;;5038319;28;20041;-81
2022/05/06 03:42:59;;;;;;;288.77;37.60;;;10.20;99.90;;;;;;5057519;28;20058;-81
2022/05/06 03:45:25;;;;;;;166.10;36.40;;;10.30;99.90;;;;;;5073971;28;20123;-81
2022/05/06 03:47:52;;;;;;;334.77;39.10;;;10.20;99.90;;;;;;5057033;28;20071;-81
2022/05/06 03:53:02;;;;;;;409.17;44.92;;;10.00;99.90;;;;;;5074162;28;20119;-80
2022/05/06 03:55:28;;;;;;;282.88;40.25;;;10.00;99.90;;;;;;5037420;28;20500;-80
2022/05/06 03:57:54;;;;;;;203.25;38.22;;;10.00;99.90;;;;;;5071633;28;20039;-80
2022/05/06 04:00:20;;;;;;;347.10;40.50;;;10.10;99.90;;;;;;5074027;28;20513;-80
2022/05/06 04:02:47;;;;;;;313.13;40.30;;;10.00;99.90;;;;;;5057117;28;20482;-80
2022/05/06 04:05:12;;;;;;;98.63;35.10;;;10.10;99.90;;;;;;5073729;28;20491;-80
2022/05/06 04:07:38;;;;;;;307.55;43.60;;;10.10;99.90;;;;;;5057231;28;20113;-80
2022/05/06 04:10:05;;;;;;;539.50;48.25;;;10.20;99.90;;;;;;5073483;28;20385;-80
2022/05/06 04:12:31;;;;;;;402.58;46.80;;;10.10;99.90;;;;;;5073617;28;20391;-80
2022/05/06 04:14:56;;;;;;;176.38;36.60;;;10.10;99.90;;;;;;5073642;28;20037;-80
2022/05/06 04:17:22;;;;;;;370.85;45.63;;;10.10;99.90;;;;;;5056697;28;20478;-79
2022/05/06 04:25:19;;;;;;;314.75;44.80;;;10.20;99.90;;;;;;5072573;28;20564;-79
2022/05/06 04:27:45;;;;;;;212.02;40.08;;;10.20;99.90;;;;;;5073344;28;20119;-80
2022/05/06 04:30:11;;;;;;;180.63;35.20;;;10.20;99.90;;;;;;5056486;28;20578;-80
2022/05/06 04:32:38;;;;;;;299.55;41.67;;;10.20;99.90;;;;;;5056382;28;20123;-80
2022/05/06 04:35:06;;;;;;;186.80;38.53;;;10.20;99.90;;;;;;5080232;22;20052;-83
2022/05/06 04:37:35;;;;;;;243.52;35.53;;;10.20;99.90;;;;;;5076662;28;20052;-83
2022/05/06 04:40:03;;;;;;;251.38;32.28;;;10.20;99.90;;;;;;5076364;28;20048;-80
2022/05/06 04:42:29;;;;;;;231.00;30.73;;;10.20;99.90;;;;;;5075814;28;20050;-80
2022/05/06 04:44:54;;;;;;;240.18;32.45;;;10.20;99.90;;;;;;5093088;28;20048;-80
2022/05/06 04:47:20;;;;;;;321.60;35.13;;;10.10;99.90;;;;;;5076048;28;20076;-80
2022/05/06 04:49:46;;;;;;;331.35;36.90;;;10.10;99.90;;;;;;5093237;28;20032;-80
2022/05/06 04:52:11;;;;;;;370.42;37.20;;;10.20;99.90;;;;;;5093001;28;20562;-80
2022/05/06 04:54:37;;;;;;;179.00;30.58;;;10.20;99.90;;;;;;5092754;28;20028;-80
2022/05/06 04:57:04;;;;;;;266.92;33.70;;;10.20;99.90;;;;;;5082090;28;20443;-80
2022/05/06 04:59:29;;;;;;;209.13;32.20;;;10.20;99.90;;;;;;5086803;28;20054;-80
2022/05/06 05:01:55;;;;;;;118.45;29.73;;;10.20;99.90;;;;;;5081402;28;20039;-80
2022/05/06 05:04:27;;;;;;;74.10;27.70;;;10.30;99.90;;;;;;5058778;28;20164;-80
2022/05/06 05:06:56;;;;;;;206.23;31.00;;;10.40;99.90;;;;;;5092716;28;20115;-80
2022/05/06 05:09:22;;;;;;;77.00;25.90;;;10.40;99.90;;;;;;5092697;28;20044;-81
2022/05/06 05:11:48;;;;;;;95.43;27.58;;;10.40;99.90;;;;;;5079983;28;20509;-81
2022/05/06 05:14:14;;;;;;;102.63;27.50;;;10.50;99.90;;;;;;5075834;28;20035;-81
2022/05/06 05:16:40;;;;;;;173.02;30.85;;;10.50;99.90;;;;;;5078598;28;20032;-81
2022/05/06 05:19:05;;;;;;;143.05;26.95;;;10.60;99.90;;;;;;5092734;28;20508;-81
2022/05/06 05:21:31;;;;;;;84.80;24.42;;;10.60;99.90;;;;;;5092701;28;20040;-81
2022/05/06 05:23:57;;;;;;;72.40;24.45;;;10.60;99.90;;;;;;5075322;28;20036;-81
2022/05/06 05:26:24;;;;;;;59.95;21.52;;;10.60;99.90;;;;;;5075696;28;20032;-81
2022/05/06 05:28:49;;;;;;;57.97;23.23;;;10.60;99.90;;;;;;5092793;28;20028;-81
2022/05/06 05:31:15;;;;;;;63.55;22.98;;;10.60;99.90;;;;;;5074900;28;20043;-80
2022/05/06 05:33:41;;;;;;;65.85;22.42;;;10.70;99.90;;;;;;5075129;28;20094;-81
2022/05/06 05:36:07;;;;;;;54.72;21.38;;;10.70;99.90;;;;;;5085849;28;20383;-81
2022/05/06 05:38:32;;;;;;;66.18;21.85;;;10.80;99.90;;;;;;5051164;28;20054;-80
2022/05/06 05:40:58;;;;;;;47.83;19.35;;;10.90;99.90;;;;;;5058427;28;20528;-80
2022/05/06 05:48:52;;;;;;;45.25;19.63;;;10.90;99.90;;;;;;5077905;28;20119;-81
2022/05/06 05:51:18;;;;;;;31.90;18.42;;;10.90;99.90;;;;;;5077903;28;20068;-81
2022/05/06 05:53:43;;;;;;;39.35;17.15;;;11.00;99.90;;;;;;5075093;28;20032;-81
2022/05/06 05:56:09;;;;;;;32.30;15.95;;;11.00;99.90;;;;;;5088670;28;20032;-82
2022/05/06 05:58:35;;;;;;;31.70;15.52;;;11.10;99.90;;;;;;5091790;28;20036;-82
2022/05/06 06:01:04;;;;;;;25.58;15.48;;;11.00;99.90;;;;;;5075252;28;20044;-81
2022/05/06 06:03:30;;;;;;;31.73;13.93;;;11.00;99.90;;;;;;5092262;28;20040;-85
2022/05/06 06:05:56;;;;;;;22.52;13.80;;;11.00;99.90;;;;;;5055181;28;20101;-85
2022/05/06 06:08:23;;;;;;;19.95;11.73;;;11.10;99.90;;;;;;5075019;28;20491;-85
2022/05/06 06:10:49;;;;;;;19.35;13.20;;;11.20;99.90;;;;;;5092025;28;20117;-85
2022/05/06 06:13:17;;;;;;;22.10;12.77;;;11.20;99.90;;;;;;5078681;28;20074;-85
2022/05/06 06:15:43;;;;;;;19.55;12.90;;;11.30;99.90;;;;;;5058589;28;20075;-85
2022/05/06 06:18:09;;;;;;;29.27;14.02;;;11.40;99.90;;;;;;5089123;28;20082;-85
2022/05/06 06:20:34;;;;;;;23.05;13.48;;;11.50;99.90;;;;;;5046859;28;20047;-81
2022/05/06 06:23:00;;;;;;;16.70;11.15;;;11.60;99.90;;;;;;5075130;28;20062;-81
2022/05/06 06:25:26;;;;;;;16.75;10.98;;;11.70;99.90;;;;;;5074818;28;20482;-80
2022/05/06 06:27:52;;;;;;;20.20;10.98;;;11.70;99.90;;;;;;5091718;28;20047;-85
2022/05/06 06:30:18;;;;;;;15.27;10.35;;;11.80;99.90;;;;;;5075193;28;20032;-85
2022/05/06 06:32:43;;;;;;;25.77;9.98;;;11.80;99.90;;;;;;5091536;28;20370;-85
2022/05/06 06:35:09;;;;;;;18.08;8.82;;;11.80;99.90;;;;;;5091643;28;20123;-81
2022/05/06 06:37:35;;;;;;;11.40;8.45;;;11.70;99.90;;;;;;5091384;28;20093;-81
2022/05/06 06:40:00;;;;;;;14.88;8.65;;;11.70;99.90;;;;;;5074733;28;20040;-81
2022/05/06 06:42:26;;;;;;;12.27;9.18;;;11.60;99.90;;;;;;5062556;28;20040;-80
2022/05/06 06:44:52;;;;;;;12.13;8.93;;;11.70;99.90;;;;;;5062268;28;20451;-81
2022/05/06 06:47:18;;;;;;;14.80;8.75;;;11.70;99.90;;;;;;5089011;28;20031;-81
2022/05/06 06:49:45;;;;;;;12.60;8.93;;;11.80;99.90;;;;;;5088920;28;20044;-81
2022/05/06 06:52:10;;;;;;;11.77;9.18;;;11.80;99.90;;;;;;5071685;28;20040;-81
2022/05/06 06:54:36;;;;;;;12.15;9.40;;;11.80;99.90;;;;;;5095508;28;20520;-81
2022/05/06 06:57:02;;;;;;;14.57;10.90;;;11.70;99.90;;;;;;5095296;28;20378;-81
2022/05/06 06:59:27;;;;;;;13.52;10.50;;;11.70;99.90;;;;;;5078886;28;20047;-81
2022/05/06 07:01:53;;;;;;;12.98;10.32;;;11.60;99.90;;;;;;5095415;28;20131;-81
2022/05/06 07:04:19;;;;;;;14.77;10.65;;;11.70;99.90;;;;;;5077590;28;20520;-81
2022/05/06 07:12:13;;;;;;;13.63;10.88;;;12.10;99.90;;;;;;5085846;28;20032;-85
2022/05/06 07:14:38;;;;;;;13.00;10.00;;;13.00;99.90;;;;;;5064062;28;20041;-85
2022/05/06 07:17:05;;;;;;;13.13;10.57;;;12.50;99.90;;;;;;5094880;28;20044;-85
2022/05/06 07:19:33;;;;;;;14.18;10.98;;;12.60;99.90;;;;;;5096308;28;20100;-85
2022/05/06 07:21:58;;;;;;;13.10;10.23;;;12.80;99.90;;;;;;5094696;28;20040;-85
2022/05/06 07:24:25;;;;;;;13.20;10.43;;;12.90;99.90;;;;;;5096230;28;20058;-85
2022/05/06 07:26:52;;;;;;;13.05;10.77;;;13.10;99.90;;;;;;5073790;28;20068;-85
2022/05/06 07:29:19;;;;;;;14.18;10.75;;;13.30;99.90;;;;;;5068265;28;20028;-85
2022/05/06 07:31:45;;;;;;;12.73;10.23;;;13.50;99.90;;;;;;5080153;28;20052;-85
2022/05/06 07:34:12;;;;;;;12.68;10.55;;;13.50;99.90;;;;;;5089626;28;20060;-85
2022/05/06 07:36:44;;;;;;;11.88;9.60;;;13.60;99.90;;;;;;5084930;28;20040;-85
2022/05/06 07:39:11;;;;;;;11.25;9.55;;;13.90;99.90;;;;;;5094273;28;20044;-85
2022/05/06 07:41:37;;;;;;;11.48;9.27;;;14.40;99.90;;;;;;5077724;28;20122;-82
2022/05/06 07:44:03;;;;;;;11.43;10.15;;;14.50;99.90;;;;;;5080151;28;20444;-82
2022/05/06 07:46:28;;;;;;;12.20;9.32;;;14.60;99.90;;;;;;5060895;28;20044;-82
2022/05/06 07:48:54;;;;;;;10.82;8.70;;;14.50;99.90;;;;;;5094229;28;20036;-82
2022/05/06 07:51:20;;;;;;;12.68;9.55;;;14.80;99.90;;;;;;5071771;28;20036;-82
2022/05/06 07:53:48;;;;;;;10.43;8.77;;;15.10;99.90;;;;;;5085562;28;20509;-82
2022/05/06 07:56:14;;;;;;;9.40;7.80;;;15.10;99.90;;;;;;5090202;28;20044;-82
2022/05/06 07:58:40;;;;;;;9.75;7.70;;;15.40;99.90;;;;;;5084023;28;20068;-85
2022/05/06 08:01:07;;;;;;;9.98;8.00;;;15.90;99.90;;;;;;5075078;28;20123;-86
2022/05/06 08:06:17;;;;;;;10.10;8.15;;;15.70;99.90;;;;;;5090704;28;20048;-85
2022/05/06 08:08:43;;;;;;;8.73;7.75;;;15.70;99.90;;;;;;5094170;28;20048;-85
2022/05/06 08:11:08;;;;;;;10.85;7.68;;;15.90;99.90;;;;;;5092667;28;20504;-85
2022/05/06 08:13:34;;;;;;;8.65;7.75;;;15.80;99.90;;;;;;5076951;28;20044;-82
2022/05/06 08:16:00;;;;;;;8.95;8.00;;;15.70;99.90;;;;;;5060655;28;20123;-82
2022/05/06 08:18:26;;;;;;;9.00;7.60;;;15.60;99.90;;;;;;5079732;28;20050;-85
2022/05/06 08:20:52;;;;;;;8.77;7.32;;;15.50;99.90;;;;;;5093778;28;20044;-86
2022/05/06 08:23:21;;;;;;;8.27;7.07;;;15.70;99.90;;;;;;5073810;28;20048;-85
2022/05/06 08:25:47;;;;;;;9.07;7.80;;;16.00;99.90;;;;;;5082861;28;20093;-86
2022/05/06 08:28:13;;;;;;;9.65;7.28;;;16.20;99.90;;;;;;5091810;28;20450;-86
2022/05/06 08:30:40;;;;;;;8.50;7.40;;;16.70;99.90;;;;;;5071495;28;20043;-86
2022/05/06 08:33:06;;;;;;;7.72;6.68;;;16.60;99.90;;;;;;5051702;28;20040;-86
2022/05/06 08:35:32;;;;;;;10.40;7.32;;;16.90;99.90;;;;;;5057888;28;20384;-86
2022/05/06 08:37:58;;;;;;;9.73;7.20;;;17.20;99.90;;;;;;5093132;28;20036;-86
2022/05/06 08:40:26;;;;;;;12.15;7.65;;;17.30;99.90;;;;;;5076839;28;20055;-86
2022/05/06 08:42:52;;;;;;;7.35;6.13;;;17.20;99.90;;;;;;5076363;28;20039;-86
2022/05/06 08:50:57;;;;;;;7.32;6.10;;;17.90;99.90;;;;;;5093345;28;20048;-86
2022/05/06 08:53:26;;;;;;;8.35;5.72;;;18.30;99.90;;;;;;5076442;28;20044;-85
2022/05/06 08:55:55;;;;;;;6.47;5.82;;;19.20;99.90;;;;;;5076546;28;20431;-85
2022/05/06 08:58:22;;;;;;;6.95;5.60;;;19.50;99.90;;;;;;5093196;28;20442;-86
2022/05/06 09:00:48;;;;;;;7.50;5.60;;;20.20;99.90;;;;;;5093024;28;20048;-86
2022/05/06 09:03:15;;;;;;;6.38;5.75;;;22.20;99.10;;;;;;5093195;28;20559;-86
2022/05/06 09:05:53;;;;;;;6.90;5.80;;;22.30;96.10;;;;;;5092863;28;20036;-87
2022/05/06 09:08:20;;;;;;;7.65;5.90;;;22.50;96.10;;;;;;5087218;28;20566;-87
2022/05/06 09:11:04;;;;;;;5.45;4.72;;;23.30;92.90;;;;;;5068110;28;20339;-87
2022/05/06 09:13:33;;;;;;;6.45;5.82;;;23.10;90.00;;;;;;5078607;28;20533;-87
2022/05/06 09:19:09;;;;;;;6.03;4.50;;;25.10;89.70;;;;;;5082137;28;20075;-87
2022/05/06 09:21:36;;;;;;;5.40;4.50;;;24.20;89.10;;;;;;5075879;28;20698;-87
2022/05/06 09:24:20;;;;;;;4.45;3.80;;;24.30;86.90;;;;;;5075923;28;20402;-87
2022/05/06 09:27:21;;;;;;;5.25;4.20;;;25.00;87.60;;;;;;5092588;28;20119;-87
2022/05/06 09:29:54;;;;;;;5.55;3.53;;;24.20;83.60;;;;;;5074884;28;20056;-87
2022/05/06 09:32:30;;;;;;;5.43;3.83;;;24.10;84.90;;;;;;5075717;28;20875;-87
2022/05/06 09:35:12;;;;;;;;;;;23.80;85.20;;;;;;5092693;28;20056;-87
2022/05/06 09:37:43;;;;;;;4.70;3.30;;;23.70;82.90;;;;;;5092223;28;19923;-87
2022/05/06 09:40:10;;;;;;;3.80;3.13;;;23.90;85.80;;;;;;5075558;28;20128;-87
2022/05/06 09:42:53;;;;;;;5.57;3.80;;;24.30;84.30;;;;;;5075618;28;20468;-87
2022/05/06 09:45:30;;;;;;;5.97;3.20;;;24.00;84.00;;;;;;5092503;28;20397;-87
2022/05/06 09:48:00;;;;;;;4.55;3.58;;;23.90;80.20;;;;;;5092137;28;20112;-87
2022/05/06 09:50:38;;;;;;;5.07;3.30;;;24.30;82.20;;;;;;5075818;28;20549;-87
2022/05/06 09:53:07;;;;;;;4.72;3.10;;;24.60;81.00;;;;;;5078002;28;20036;-87
2022/05/06 09:55:35;;;;;;;5.60;3.63;;;24.20;81.90;;;;;;5092254;28;20105;-88
2022/05/06 09:58:02;;;;;;;5.95;3.70;;;24.10;80.40;;;;;;5058544;28;20119;-88
2022/05/06 10:00:28;;;;;;;4.40;3.08;;;23.90;80.30;;;;;;5081405;28;20449;-87
2022/05/06 10:02:56;;;;;;;3.97;3.10;;;24.00;77.00;;;;;;5072535;28;20382;-87
2022/05/06 10:05:24;;;;;;;4.25;3.60;;;24.20;80.20;;;;;;5092163;28;20067;-88
2022/05/06 10:07:55;;;;;;;5.85;2.70;;;24.40;80.00;;;;;;5075545;28;20436;-87
2022/05/06 10:10:29;;;;;;;3.55;2.63;;;23.80;76.20;;;;;;5092389;28;20032;-88
2022/05/06 10:13:01;;;;;;;6.32;2.70;;;24.60;79.60;;;;;;5077655;28;20518;-87
2022/05/06 10:15:28;;;;;;;5.20;2.30;;;25.40;78.80;;;;;;5092293;28;20048;-86
2022/05/06 10:17:59;;;;;;;3.47;2.25;;;25.00;77.90;;;;;;5080879;28;20089;-86
2022/05/06 10:20:37;;;;;;;4.95;2.83;;;25.30;74.90;;;;;;5096142;28;20040;-87
2022/05/06 10:23:07;;;;;;;5.88;2.70;;;26.20;74.00;;;;;;5084433;28;20032;-87
2022/05/06 10:25:42;;;;;;;4.60;2.55;;;26.80;73.90;;;;;;5079114;28;20598;-87
2022/05/06 10:34:12;;;;;;;4.47;2.80;;;28.10;66.50;;;;;;5089733;28;20131;-88
2022/05/06 10:36:42;;;;;;;3.88;3.10;;;28.70;68.80;;;;;;5086438;28;20052;-87
2022/05/06 10:39:26;;;;;;;5.50;3.10;;;28.20;64.90;;;;;;5078607;28;20040;-88
2022/05/06 10:42:00;;;;;;;4.38;2.90;;;28.40;64.40;;;;;;5096026;28;20416;-87
2022/05/06 10:44:45;;;;;;;5.38;3.22;;;28.70;64.00;;;;;;5095576;28;20147;-87
2022/05/06 10:47:20;;;;;;;4.75;3.50;;;27.70;65.80;;;;;;5078701;28;20063;-88
2022/05/06 10:49:51;;;;;;;6.68;3.05;;;26.50;67.20;;;;;;5082199;28;20055;-87
2022/05/06 10:52:20;;;;;;;4.95;3.25;;;25.80;68.00;;;;;;5078574;28;20040;-87
2022/05/06 10:54:49;;;;;;;4.45;3.65;;;26.50;69.00;;;;;;5081453;28;20362;-87
2022/05/06 10:57:16;;;;;;;5.63;3.40;;;25.40;67.30;;;;;;5078442;28;20047;-87
2022/05/06 10:59:56;;;;;;;5.43;3.38;;;25.70;69.90;;;;;;5094294;28;20115;-87
2022/05/06 11:02:27;;;;;;;4.55;3.28;;;25.80;69.90;;;;;;5095455;28;20082;-83
2022/05/06 11:05:00;;;;;;;5.93;4.30;;;25.90;70.30;;;;;;5089831;28;20036;-83
2022/05/06 11:07:27;;;;;;;4.53;3.45;;;27.30;67.20;;;;;;5087362;28;20501;-83
2022/05/06 11:09:54;;;;;;;6.50;4.28;;;27.00;65.30;;;;;;5078210;28;20047;-83
2022/05/06 11:12:47;;;;;;;4.57;3.90;;;28.60;65.40;;;;;;5093908;28;20040;-83
2022/05/06 11:15:22;;;;;;;6.28;4.13;;;28.80;62.50;;;;;;5061060;28;20075;-83
2022/05/06 11:17:49;;;;;;;5.07;3.80;;;29.00;63.40;;;;;;5088745;28;20126;-83
2022/05/06 11:20:19;;;;;;;5.28;4.30;;;29.60;63.80;;;;;;5078099;28;20451;-84
2022/05/06 11:22:58;;;;;;;5.35;3.30;;;29.10;61.30;;;;;;5094817;28;20040;-84
2022/05/06 11:25:34;;;;;;;6.07;3.65;;;29.20;61.60;;;;;;5060608;28;20045;-84
2022/05/06 11:28:24;;;;;;;5.78;3.55;;;28.10;61.10;;;;;;5081364;28;20052;-84
2022/05/06 11:30:51;;;;;;;5.30;4.25;;;28.30;63.00;;;;;;5083878;28;20082;-84
2022/05/06 11:33:24;;;;;;;5.68;4.53;;;27.90;63.30;;;;;;5061182;28;20088;-84
2022/05/06 11:35:51;;;;;;;4.95;4.38;;;27.90;62.80;;;;;;5094278;28;20135;-89
2022/05/06 11:38:38;;;;;;;5.38;4.32;;;28.60;62.70;;;;;;5094079;28;20044;-89
2022/05/06 11:41:11;;;;;;;6.88;4.20;;;29.20;61.50;;;;;;5077877;28;20371;-88
2022/05/06 11:43:39;;;;;;;5.70;4.65;;;28.30;61.60;;;;;;5094521;28;20051;-88
2022/05/06 11:48:49;;;;;;;6.43;3.90;;;29.60;60.70;;;;;;5094217;28;20040;-89
2022/05/06 11:51:26;;;;;;;6.50;4.28;;;29.40;61.00;;;;;;5077577;28;20115;-88
2022/05/06 11:53:54;;;;;;;4.72;3.30;;;29.40;61.20;;;;;;5077522;28;20422;-88
2022/05/06 11:56:25;;;;;;;4.47;3.05;;;28.40;61.80;;;;;;5094228;28;20044;-88
2022/05/06 11:58:54;;;;;;;5.60;4.00;;;27.70;62.10;;;;;;5077364;28;20064;-88
2022/05/06 12:01:37;;;;;;;5.60;4.30;;;26.40;64.50;;;;;;5094318;28;20367;-88
2022/05/06 12:04:08;;;;;;;5.70;4.53;;;25.80;66.30;;;;;;5094293;28;20412;-88
2022/05/06 12:06:40;;;;;;;5.85;4.95;;;25.30;66.00;;;;;;5077218;28;20122;-88
2022/05/06 12:09:17;;;;;;;5.82;4.20;;;24.80;68.10;;;;;;5077701;28;20051;-87
2022/05/06 12:11:44;;;;;;;8.20;4.63;;;24.50;69.40;;;;;;5062208;28;20043;-87
2022/05/06 12:14:19;;;;;;;6.60;4.50;;;23.40;70.30;;;;;;5093858;28;20064;-87
2022/05/06 12:16:55;;;;;;;5.47;4.40;;;24.20;72.10;;;;;;5077055;28;20044;-87
2022/05/06 12:19:33;;;;;;;;;;;25.10;70.40;;;;;;5094190;28;20089;-87
2022/05/06 12:22:04;;;;;;;7.65;5.10;;;25.50;68.80;;;;;;5063003;28;19916;-87
2022/05/06 12:24:42;;;;;;;7.75;5.72;;;24.80;68.50;;;;;;5084016;28;20044;-87
2022/05/06 12:27:09;;;;;;;7.07;5.40;;;23.80;70.50;;;;;;5080325;28;20079;-88
2022/05/06 12:29:39;;;;;;;6.65;5.85;;;24.00;71.20;;;;;;5076768;28;20489;-88
2022/05/06 12:32:05;;;;;;;6.75;5.00;;;23.50;73.40;;;;;;5076812;28;20482;-87
2022/05/06 12:34:32;;;;;;;7.47;5.32;;;24.00;73.10;;;;;;5093144;28;20132;-87
2022/05/06 12:37:15;;;;;;;7.05;5.68;;;24.00;71.90;;;;;;5076660;28;20055;-87
2022/05/06 12:39:45;;;;;;;7.90;5.78;;;24.10;72.20;;;;;;5060460;28;20040;-86
2022/05/06 12:42:18;;;;;;;8.60;5.68;;;24.40;72.60;;;;;;5070825;28;20051;-87
2022/05/06 12:44:45;;;;;;;7.57;5.60;;;24.30;71.50;;;;;;5060084;28;20119;-88
2022/05/06 12:50:06;;;;;;;7.18;5.95;;;23.70;73.10;;;;;;5081924;28;20051;-87
2022/05/06 12:52:32;;;;;;;10.85;8.48;;;23.80;73.60;;;;;;5059417;28;20043;-87
2022/05/06 12:54:58;;;;;;;13.18;8.57;;;23.40;74.80;;;;;;5093109;28;20115;-87
2022/05/06 12:57:24;;;;;;;11.02;8.93;;;23.70;74.20;;;;;;5076361;28;20035;-86
2022/05/06 12:59:50;;;;;;;10.90;7.60;;;23.00;75.70;;;;;;5087188;28;20040;-83
2022/05/06 13:02:23;;;;;;;8.30;6.78;;;23.40;76.70;;;;;;5090790;28;20467;-81
2022/05/06 13:04:49;;;;;;;13.60;9.80;;;23.70;76.60;;;;;;5060046;22;20045;-81
2022/05/06 13:07:15;;;;;;;13.65;8.68;;;23.20;76.60;;;;;;5054317;28;20049;-81
2022/05/06 13:09:41;;;;;;;10.10;8.88;;;22.90;78.40;;;;;;5072250;28;20048;-81
2022/05/06 13:12:09;;;;;;;13.27;9.55;;;23.20;79.90;;;;;;5053618;28;20131;-82
2022/05/06 13:14:35;;;;;;;15.60;10.20;;;23.40;78.00;;;;;;5066775;28;20494;-82
2022/05/06 13:17:00;;;;;;;17.35;10.80;;;24.10;76.50;;;;;;5052468;28;20090;-85
2022/05/06 13:19:29;;;;;;;11.30;10.02;;;24.20;76.70;;;;;;5052323;28;20040;-85
2022/05/06 13:21:55;;;;;;;14.30;11.05;;;24.50;75.50;;;;;;5083181;28;20075;-86
2022/05/06 13:24:22;;;;;;;13.45;9.70;;;24.10;76.60;;;;;;5052289;28;20143;-86
2022/05/06 13:26:48;;;;;;;12.82;10.50;;;24.30;75.20;;;;;;5089583;28;20044;-85
2022/05/06 13:29:13;;;;;;;17.73;10.10;;;24.30;76.20;;;;;;5062417;28;20032;-85